sensor_id;sensor_type;location;lat;lon;timestamp;pressure;altitude;pressure_sealevel;temperature;humidity
47530;BME280;33272;51.922;7.730;2023-04-27T00:01:55;143785.13;;;5.17;97.10
47530;BME280;33272;51.922;7.730;2023-04-27T00:04:22;143754.84;;;5.05;97.10
47530;BME280;33272;51.922;7.730;2023-04-27T00:06:49;143719.50;;;4.91;97.30
47530;BME280;33272;51.922;7.730;2023-04-27T00:09:16;143691.78;;;4.79;98.21
47530;BME280;33272;51.922;7.730;2023-04-27T00:11:43;143665.28;;;4.69;98.32
47530;BME280;33272;51.922;7.730;2023-04-27T00:14:10;143640.06;;;4.58;98.86
47530;BME280;33272;51.922;7.730;2023-04-27T00:16:37;143614.88;;;4.48;99.49
47530;BME280;33272;51.922;7.730;2023-04-27T00:19:06;143585.88;;;4.36;99.80
47530;BME280;33272;51.922;7.730;2023-04-27T00:21:33;143561.91;;;4.27;100.00
47530;BME280;33272;51.922;7.730;2023-04-27T00:24:00;143540.47;;;4.18;100.00
47530;BME280;33272;51.922;7.730;2023-04-27T00:26:27;143521.59;;;4.10;100.00
47530;BME280;33272;51.922;7.730;2023-04-27T00:28:54;143498.91;;;4.01;100.00
47530;BME280;33272;51.922;7.730;2023-04-27T00:31:21;143476.22;;;3.92;100.00
47530;BME280;33272;51.922;7.730;2023-04-27T00:33:48;143461.09;;;3.86;100.00
47530;BME280;33272;51.922;7.730;2023-04-27T00:36:16;143442.16;;;3.78;100.00
47530;BME280;33272;51.922;7.730;2023-04-27T00:38:43;143422.03;;;3.70;100.00
47530;BME280;33272;51.922;7.730;2023-04-27T00:41:10;143406.91;;;3.64;100.00
47530;BME280;33272;51.922;7.730;2023-04-27T00:43:42;143393.03;;;3.58;100.00
47530;BME280;33272;51.922;7.730;2023-04-27T00:46:12;143375.44;;;3.51;100.00
47530;BME280;33272;51.922;7.730;2023-04-27T00:48:39;143359.06;;;3.44;100.00
47530;BME280;33272;51.922;7.730;2023-04-27T00:51:07;143342.69;;;3.38;100.00
47530;BME280;33272;51.922;7.730;2023-04-27T00:53:35;143327.56;;;3.32;100.00
47530;BME280;33272;51.922;7.730;2023-04-27T00:56:03;143312.44;;;3.25;100.00
47530;BME280;33272;51.922;7.730;2023-04-27T00:58:30;143297.34;;;3.19;100.00
47530;BME280;33272;51.922;7.730;2023-04-27T01:00:58;143284.72;;;3.14;100.00
47530;BME280;33272;51.922;7.730;2023-04-27T01:03:26;143270.88;;;3.09;100.00
47530;BME280;33272;51.922;7.730;2023-04-27T01:05:52;143253.25;;;3.01;100.00
47530;BME280;33272;51.922;7.730;2023-04-27T01:08:21;143241.94;;;2.97;100.00
47530;BME280;33272;51.922;7.730;2023-04-27T01:10:50;143231.84;;;2.93;100.00
47530;BME280;33272;51.922;7.730;2023-04-27T01:13:17;143218.03;;;2.87;100.00
47530;BME280;33272;51.922;7.730;2023-04-27T01:15:45;143206.66;;;2.83;100.00
47530;BME280;33272;51.922;7.730;2023-04-27T01:18:12;143190.31;;;2.76;100.00
47530;BME280;33272;51.922;7.730;2023-04-27T01:20:39;143167.66;;;2.67;100.00
47530;BME280;33272;51.922;7.730;2023-04-27T01:23:06;143152.53;;;2.61;100.00
47530;BME280;33272;51.922;7.730;2023-04-27T01:25:35;143140.00;;;2.55;100.00
47530;BME280;33272;51.922;7.730;2023-04-27T01:28:02;143129.88;;;2.51;100.00
47530;BME280;33272;51.922;7.730;2023-04-27T01:30:29;143121.09;;;2.48;100.00
47530;BME280;33272;51.922;7.730;2023-04-27T01:32:56;143113.53;;;2.45;100.00
47530;BME280;33272;51.922;7.730;2023-04-27T01:35:23;143100.97;;;2.40;100.00
47530;BME280;33272;51.922;7.730;2023-04-27T01:37:50;143093.44;;;2.37;100.00
47530;BME280;33272;51.922;7.730;2023-04-27T01:40:17;143082.06;;;2.32;100.00
47530;BME280;33272;51.922;7.730;2023-04-27T01:42:45;143069.47;;;2.27;100.00
47530;BME280;33272;51.922;7.730;2023-04-27T01:45:12;143056.94;;;2.22;100.00
47530;BME280;33272;51.922;7.730;2023-04-27T01:47:39;143041.81;;;2.16;100.00
47530;BME280;33272;51.922;7.730;2023-04-27T01:50:07;143035.53;;;2.13;100.00
47530;BME280;33272;51.922;7.730;2023-04-27T01:52:34;143024.22;;;2.08;100.00
47530;BME280;33272;51.922;7.730;2023-04-27T01:55:01;143012.88;;;2.04;100.00
47530;BME280;33272;51.922;7.730;2023-04-27T01:57:28;143000.34;;;1.99;100.00
47530;BME280;33272;51.922;7.730;2023-04-27T01:59:57;142986.47;;;1.93;100.00
47530;BME280;33272;51.922;7.730;2023-04-27T02:02:24;142971.38;;;1.87;100.00
47530;BME280;33272;51.922;7.730;2023-04-27T02:04:51;142966.34;;;1.85;100.00
47530;BME280;33272;51.922;7.730;2023-04-27T02:07:18;142950.00;;;1.78;100.00
47530;BME280;33272;51.922;7.730;2023-04-27T02:09:45;142942.44;;;1.75;100.00
47530;BME280;33272;51.922;7.730;2023-04-27T02:12:11;142931.16;;;1.71;100.00
47530;BME280;33272;51.922;7.730;2023-04-27T02:14:39;142922.34;;;1.67;100.00
47530;BME280;33272;51.922;7.730;2023-04-27T02:17:07;142913.50;;;1.63;100.00
47530;BME280;33272;51.922;7.730;2023-04-27T02:19:34;142902.22;;;1.59;100.00
47530;BME280;33272;51.922;7.730;2023-04-27T02:22:01;142892.16;;;1.55;100.00
47530;BME280;33272;51.922;7.730;2023-04-27T02:24:28;142889.63;;;1.54;100.00
47530;BME280;33272;51.922;7.730;2023-04-27T02:26:55;142880.84;;;1.50;100.00
47530;BME280;33272;51.922;7.730;2023-04-27T02:29:22;142873.28;;;1.47;100.00
47530;BME280;33272;51.922;7.730;2023-04-27T02:31:49;142867.00;;;1.45;100.00
47530;BME280;33272;51.922;7.730;2023-04-27T02:34:17;142856.94;;;1.41;100.00
47530;BME280;33272;51.922;7.730;2023-04-27T02:36:44;142844.34;;;1.35;100.00
47530;BME280;33272;51.922;7.730;2023-04-27T02:39:11;142826.78;;;1.28;100.00
47530;BME280;33272;51.922;7.730;2023-04-27T02:41:38;142816.72;;;1.24;100.00
47530;BME280;33272;51.922;7.730;2023-04-27T02:44:05;142812.94;;;1.23;100.00
47530;BME280;33272;51.922;7.730;2023-04-27T02:46:32;142810.44;;;1.22;100.00
47530;BME280;33272;51.922;7.730;2023-04-27T02:48:59;142802.88;;;1.19;100.00
47530;BME280;33272;51.922;7.730;2023-04-27T02:51:28;142797.84;;;1.16;100.00
47530;BME280;33272;51.922;7.730;2023-04-27T02:53:55;142790.31;;;1.13;100.00
47530;BME280;33272;51.922;7.730;2023-04-27T02:56:22;142785.31;;;1.11;100.00
47530;BME280;33272;51.922;7.730;2023-04-27T02:58:49;142776.50;;;1.08;100.00
47530;BME280;33272;51.922;7.730;2023-04-27T03:01:16;142767.72;;;1.04;100.00
47530;BME280;33272;51.922;7.730;2023-04-27T03:03:44;142760.19;;;1.01;100.00
47530;BME280;33272;51.922;7.730;2023-04-27T03:06:13;142746.34;;;0.96;100.00
47530;BME280;33272;51.922;7.730;2023-04-27T03:08:43;142733.75;;;0.90;100.00
47530;BME280;33272;51.922;7.730;2023-04-27T03:11:10;142722.47;;;0.86;100.00
47530;BME280;33272;51.922;7.730;2023-04-27T03:13:37;142717.44;;;0.84;100.00
47530;BME280;33272;51.922;7.730;2023-04-27T03:16:08;142704.84;;;0.79;100.00
47530;BME280;33272;51.922;7.730;2023-04-27T03:18:36;142689.81;;;0.73;100.00
47530;BME280;33272;51.922;7.730;2023-04-27T03:21:07;142677.25;;;0.67;100.00
47530;BME280;33272;51.922;7.730;2023-04-27T03:23:35;142663.41;;;0.62;100.00
47530;BME280;33272;51.922;7.730;2023-04-27T03:26:06;142644.59;;;0.54;100.00
47530;BME280;33272;51.922;7.730;2023-04-27T03:28:33;142632.00;;;0.49;100.00
47530;BME280;33272;51.922;7.730;2023-04-27T03:31:04;142621.97;;;0.45;100.00
47530;BME280;33272;51.922;7.730;2023-04-27T03:33:32;142614.44;;;0.42;100.00
47530;BME280;33272;51.922;7.730;2023-04-27T03:35:59;142610.63;;;0.40;100.00
47530;BME280;33272;51.922;7.730;2023-04-27T03:38:27;142610.63;;;0.40;100.00
47530;BME280;33272;51.922;7.730;2023-04-27T03:40:54;142609.38;;;0.40;100.00
47530;BME280;33272;51.922;7.730;2023-04-27T03:43:24;142608.16;;;0.39;100.00
47530;BME280;33272;51.922;7.730;2023-04-27T03:45:51;142601.84;;;0.37;100.00
47530;BME280;33272;51.922;7.730;2023-04-27T03:48:18;142599.34;;;0.36;100.00
47530;BME280;33272;51.922;7.730;2023-04-27T03:50:46;142600.59;;;0.36;100.00
47530;BME280;33272;51.922;7.730;2023-04-27T03:53:13;142599.34;;;0.36;100.00
47530;BME280;33272;51.922;7.730;2023-04-27T03:55:42;142595.56;;;0.34;100.00
47530;BME280;33272;51.922;7.730;2023-04-27T03:58:10;142589.31;;;0.32;100.00
47530;BME280;33272;51.922;7.730;2023-04-27T04:00:38;142576.75;;;0.27;100.00
47530;BME280;33272;51.922;7.730;2023-04-27T04:03:06;142567.97;;;0.23;100.00
47530;BME280;33272;51.922;7.730;2023-04-27T04:05:33;142559.19;;;0.19;100.00
47530;BME280;33272;51.922;7.730;2023-04-27T04:08:00;142556.63;;;0.18;100.00
47530;BME280;33272;51.922;7.730;2023-04-27T04:10:28;142551.66;;;0.16;100.00
47530;BME280;33272;51.922;7.730;2023-04-27T04:12:55;142555.38;;;0.18;100.00
47530;BME280;33272;51.922;7.730;2023-04-27T04:15:22;142551.66;;;0.16;100.00
47530;BME280;33272;51.922;7.730;2023-04-27T04:17:50;142552.88;;;0.17;100.00
47530;BME280;33272;51.922;7.730;2023-04-27T04:20:17;142556.63;;;0.18;100.00
47530;BME280;33272;51.922;7.730;2023-04-27T04:22:44;142560.44;;;0.20;100.00
47530;BME280;33272;51.922;7.730;2023-04-27T04:25:11;142566.72;;;0.22;100.00
47530;BME280;33272;51.922;7.730;2023-04-27T04:27:38;142570.47;;;0.24;100.00
47530;BME280;33272;51.922;7.730;2023-04-27T04:30:06;142580.50;;;0.28;100.00
47530;BME280;33272;51.922;7.730;2023-04-27T04:32:34;142590.56;;;0.32;100.00
47530;BME280;33272;51.922;7.730;2023-04-27T04:35:04;142601.84;;;0.37;100.00
47530;BME280;33272;51.922;7.730;2023-04-27T04:37:32;142609.38;;;0.40;100.00
47530;BME280;33272;51.922;7.730;2023-04-27T04:40:03;142611.88;;;0.41;100.00
47530;BME280;33272;51.922;7.730;2023-04-27T04:42:34;142624.47;;;0.46;100.00
47530;BME280;33272;51.922;7.730;2023-04-27T04:45:03;142648.31;;;0.56;100.00
47530;BME280;33272;51.922;7.730;2023-04-27T04:47:30;142687.28;;;0.72;100.00
47530;BME280;33272;51.922;7.730;2023-04-27T04:49:58;142747.59;;;0.96;100.00
47530;BME280;33272;51.922;7.730;2023-04-27T04:52:27;142794.09;;;1.15;100.00
47530;BME280;33272;51.922;7.730;2023-04-27T04:54:54;142821.78;;;1.26;100.00
47530;BME280;33272;51.922;7.730;2023-04-27T04:57:21;142833.06;;;1.31;100.00
47530;BME280;33272;51.922;7.730;2023-04-27T04:59:48;142841.84;;;1.34;100.00
47530;BME280;33272;51.922;7.730;2023-04-27T05:02:15;142850.66;;;1.38;100.00
47530;BME280;33272;51.922;7.730;2023-04-27T05:04:42;142860.75;;;1.42;100.00
47530;BME280;33272;51.922;7.730;2023-04-27T05:07:09;142875.84;;;1.48;100.00
47530;BME280;33272;51.922;7.730;2023-04-27T05:09:39;142895.91;;;1.56;100.00
47530;BME280;33272;51.922;7.730;2023-04-27T05:12:06;142913.50;;;1.63;100.00
47530;BME280;33272;51.922;7.730;2023-04-27T05:14:33;142938.69;;;1.74;100.00
47530;BME280;33272;51.922;7.730;2023-04-27T05:17:00;142962.59;;;1.83;100.00
47530;BME280;33272;51.922;7.730;2023-04-27T05:19:28;142987.72;;;1.94;100.00
47530;BME280;33272;51.922;7.730;2023-04-27T05:21:56;143020.44;;;2.07;100.00
47530;BME280;33272;51.922;7.730;2023-04-27T05:24:24;143112.28;;;2.44;100.00
47530;BME280;33272;51.922;7.730;2023-04-27T05:26:52;143296.09;;;3.19;100.00
47530;BME280;33272;51.922;7.730;2023-04-27T05:29:19;143498.91;;;4.01;100.00
47530;BME280;33272;51.922;7.730;2023-04-27T05:31:47;143656.47;;;4.65;100.00
47530;BME280;33272;51.922;7.730;2023-04-27T05:34:14;143812.84;;;5.28;100.00
47530;BME280;33272;51.922;7.730;2023-04-27T05:36:41;144000.94;;;6.04;100.00
47530;BME280;33272;51.922;7.730;2023-04-27T05:39:08;144173.94;;;6.74;100.00
47530;BME280;33272;51.922;7.730;2023-04-27T05:41:35;144324.34;;;7.35;100.00
47530;BME280;33272;51.922;7.730;2023-04-27T05:44:03;144448.25;;;7.85;100.00
47530;BME280;33272;51.922;7.730;2023-04-27T05:46:30;144554.44;;;8.28;100.00
47530;BME280;33272;51.922;7.730;2023-04-27T05:48:58;144645.59;;;8.65;100.00
47530;BME280;33272;51.922;7.730;2023-04-27T05:51:25;144730.41;;;8.99;100.00
47530;BME280;33272;51.922;7.730;2023-04-27T05:53:53;144787.34;;;9.22;100.00
47530;BME280;33272;51.922;7.730;2023-04-27T05:56:21;144834.19;;;9.41;100.00
47530;BME280;33272;51.922;7.730;2023-04-27T05:58:48;144864.59;;;9.54;100.00
47530;BME280;33272;51.922;7.730;2023-04-27T06:01:16;144912.72;;;9.73;100.00
47530;BME280;33272;51.922;7.730;2023-04-27T06:03:43;144930.44;;;9.80;100.00
47530;BME280;33272;51.922;7.730;2023-04-27T06:06:10;144955.78;;;9.90;100.00
47530;BME280;33272;51.922;7.730;2023-04-27T06:08:37;144992.50;;;10.05;100.00
47530;BME280;33272;51.922;7.730;2023-04-27T06:11:04;145034.34;;;10.22;100.00
47530;BME280;33272;51.922;7.730;2023-04-27T06:13:31;145077.44;;;10.39;100.00
47530;BME280;33272;51.922;7.730;2023-04-27T06:15:58;145107.88;;;10.52;100.00
47530;BME280;33272;51.922;7.730;2023-04-27T06:18:27;145119.31;;;10.56;100.00
47530;BME280;33272;51.922;7.730;2023-04-27T06:20:58;145145.91;;;10.67;100.00
47530;BME280;33272;51.922;7.730;2023-04-27T06:23:26;145187.72;;;10.84;100.00
47530;BME280;33272;51.922;7.730;2023-04-27T06:25:53;145235.88;;;11.03;99.80
47530;BME280;33272;51.922;7.730;2023-04-27T06:28:20;145270.16;;;11.17;97.78
47530;BME280;33272;51.922;7.730;2023-04-27T06:30:47;145294.25;;;11.27;97.18
47530;BME280;33272;51.922;7.730;2023-04-27T06:33:14;145310.72;;;11.33;95.00
47530;BME280;33272;51.922;7.730;2023-04-27T06:35:43;145282.81;;;11.22;94.45
47530;BME280;33272;51.922;7.730;2023-04-27T06:38:10;145249.84;;;11.09;94.83
47530;BME280;33272;51.922;7.730;2023-04-27T06:40:37;145200.41;;;10.89;94.53
47530;BME280;33272;51.922;7.730;2023-04-27T06:43:04;145143.38;;;10.66;94.02
47530;BME280;33272;51.922;7.730;2023-04-27T06:45:31;145107.88;;;10.52;94.50
47530;BME280;33272;51.922;7.730;2023-04-27T06:47:58;145086.31;;;10.43;93.46
47530;BME280;33272;51.922;7.730;2023-04-27T06:50:26;145078.72;;;10.40;93.18
47530;BME280;33272;51.922;7.730;2023-04-27T06:52:54;145055.91;;;10.31;92.79
47530;BME280;33272;51.922;7.730;2023-04-27T06:55:21;145047.03;;;10.27;92.53
47530;BME280;33272;51.922;7.730;2023-04-27T06:57:48;145011.53;;;10.13;91.23
47530;BME280;33272;51.922;7.730;2023-04-27T07:00:16;144993.81;;;10.06;91.90
47530;BME280;33272;51.922;7.730;2023-04-27T07:02:43;144984.91;;;10.02;91.97
47530;BME280;33272;51.922;7.730;2023-04-27T07:05:10;144986.22;;;10.03;92.19
47530;BME280;33272;51.922;7.730;2023-04-27T07:07:37;145005.19;;;10.10;91.88
47530;BME280;33272;51.922;7.730;2023-04-27T07:10:07;145017.88;;;10.15;91.33
47530;BME280;33272;51.922;7.730;2023-04-27T07:12:35;145029.25;;;10.20;91.23
47530;BME280;33272;51.922;7.730;2023-04-27T07:15:02;145025.47;;;10.18;90.64
47530;BME280;33272;51.922;7.730;2023-04-27T07:17:31;145026.75;;;10.19;90.72
47530;BME280;33272;51.922;7.730;2023-04-27T07:19:58;145048.34;;;10.28;90.88
47530;BME280;33272;51.922;7.730;2023-04-27T07:22:25;145064.81;;;10.34;89.84
47530;BME280;33272;51.922;7.730;2023-04-27T07:24:53;145083.78;;;10.42;89.32
47530;BME280;33272;51.922;7.730;2023-04-27T07:27:21;145087.63;;;10.43;87.85
47530;BME280;33272;51.922;7.730;2023-04-27T07:29:49;145088.88;;;10.44;87.40
47530;BME280;33272;51.922;7.730;2023-04-27T07:32:16;145095.22;;;10.47;87.42
47530;BME280;33272;51.922;7.730;2023-04-27T07:34:43;145096.50;;;10.47;87.31
47530;BME280;33272;51.922;7.730;2023-04-27T07:37:10;145106.59;;;10.51;86.98
47530;BME280;33272;51.922;7.730;2023-04-27T07:39:37;145088.88;;;10.44;85.89
47530;BME280;33272;51.922;7.730;2023-04-27T07:42:04;145086.31;;;10.43;85.48
47530;BME280;33272;51.922;7.730;2023-04-27T07:44:32;145090.13;;;10.44;85.42
47530;BME280;33272;51.922;7.730;2023-04-27T07:46:59;145088.88;;;10.44;84.60
47530;BME280;33272;51.922;7.730;2023-04-27T07:49:29;145095.22;;;10.47;83.60
47530;BME280;33272;51.922;7.730;2023-04-27T07:51:57;145111.69;;;10.53;83.23
47530;BME280;33272;51.922;7.730;2023-04-27T07:54:23;145123.09;;;10.58;83.31
47530;BME280;33272;51.922;7.730;2023-04-27T07:56:51;145142.06;;;10.65;83.68
47530;BME280;33272;51.922;7.730;2023-04-27T07:59:18;145153.50;;;10.70;82.85
47530;BME280;33272;51.922;7.730;2023-04-27T08:01:47;145139.56;;;10.64;82.31
47530;BME280;33272;51.922;7.730;2023-04-27T08:04:14;145144.63;;;10.66;82.01
47530;BME280;33272;51.922;7.730;2023-04-27T08:06:41;145159.84;;;10.73;81.96
47530;BME280;33272;51.922;7.730;2023-04-27T08:09:08;145166.19;;;10.75;80.66
47530;BME280;33272;51.922;7.730;2023-04-27T08:11:35;145177.59;;;10.80;80.77
47530;BME280;33272;51.922;7.730;2023-04-27T08:14:02;145196.56;;;10.87;81.42
47530;BME280;33272;51.922;7.730;2023-04-27T08:16:29;145211.78;;;10.94;80.61
47530;BME280;33272;51.922;7.730;2023-04-27T08:18:58;145220.72;;;10.97;79.85
47530;BME280;33272;51.922;7.730;2023-04-27T08:21:26;145220.72;;;10.97;79.27
47530;BME280;33272;51.922;7.730;2023-04-27T08:23:53;145233.38;;;11.02;79.34
47530;BME280;33272;51.922;7.730;2023-04-27T08:26:20;145234.63;;;11.03;78.86
47530;BME280;33272;51.922;7.730;2023-04-27T08:28:47;145235.88;;;11.03;77.81
47530;BME280;33272;51.922;7.730;2023-04-27T08:31:13;145187.72;;;10.84;77.46
47530;BME280;33272;51.922;7.730;2023-04-27T08:33:41;145181.41;;;10.81;77.41
47530;BME280;33272;51.922;7.730;2023-04-27T08:36:09;145190.28;;;10.85;76.15
47530;BME280;33272;51.922;7.730;2023-04-27T08:38:36;145204.19;;;10.90;76.49
47530;BME280;33272;51.922;7.730;2023-04-27T08:41:03;145202.94;;;10.90;76.21
47530;BME280;33272;51.922;7.730;2023-04-27T08:43:34;145221.97;;;10.98;76.41
47530;BME280;33272;51.922;7.730;2023-04-27T08:46:02;145237.19;;;11.04;76.22
47530;BME280;33272;51.922;7.730;2023-04-27T08:48:29;145252.41;;;11.10;76.17
47530;BME280;33272;51.922;7.730;2023-04-27T08:50:56;145266.31;;;11.16;76.08
47530;BME280;33272;51.922;7.730;2023-04-27T08:53:26;145290.41;;;11.25;75.22
47530;BME280;33272;51.922;7.730;2023-04-27T08:55:53;145319.59;;;11.37;74.57
47530;BME280;33272;51.922;7.730;2023-04-27T08:58:21;145346.25;;;11.48;73.39
47530;BME280;33272;51.922;7.730;2023-04-27T09:00:48;145357.66;;;11.52;72.50
47530;BME280;33272;51.922;7.730;2023-04-27T09:03:21;145355.13;;;11.51;71.39
47530;BME280;33272;51.922;7.730;2023-04-27T09:05:49;145366.53;;;11.56;72.13
47530;BME280;33272;51.922;7.730;2023-04-27T09:08:16;145365.25;;;11.55;72.14
47530;BME280;33272;51.922;7.730;2023-04-27T09:10:45;145352.56;;;11.50;71.81
47530;BME280;33272;51.922;7.730;2023-04-27T09:13:12;145337.34;;;11.44;71.18
47530;BME280;33272;51.922;7.730;2023-04-27T09:15:44;145344.94;;;11.47;71.86
47530;BME280;33272;51.922;7.730;2023-04-27T09:18:15;145365.25;;;11.55;71.25
47530;BME280;33272;51.922;7.730;2023-04-27T09:20:43;145375.38;;;11.59;70.56
47530;BME280;33272;51.922;7.730;2023-04-27T09:23:23;145410.94;;;11.74;71.16
47530;BME280;33272;51.922;7.730;2023-04-27T09:25:52;145438.88;;;11.85;68.21
47530;BME280;33272;51.922;7.730;2023-04-27T09:28:20;145429.94;;;11.81;66.69
47530;BME280;33272;51.922;7.730;2023-04-27T09:30:52;145445.22;;;11.88;66.85
47530;BME280;33272;51.922;7.730;2023-04-27T09:33:23;145445.22;;;11.88;65.93
47530;BME280;33272;51.922;7.730;2023-04-27T09:35:51;145429.94;;;11.81;66.04
47530;BME280;33272;51.922;7.730;2023-04-27T09:38:19;145419.81;;;11.77;65.98
47530;BME280;33272;51.922;7.730;2023-04-27T09:40:47;145410.94;;;11.74;66.33
47530;BME280;33272;51.922;7.730;2023-04-27T09:43:16;145413.47;;;11.75;65.78
47530;BME280;33272;51.922;7.730;2023-04-27T09:45:43;145432.50;;;11.82;66.35
47530;BME280;33272;51.922;7.730;2023-04-27T09:48:11;145446.47;;;11.88;64.44
47530;BME280;33272;51.922;7.730;2023-04-27T09:50:41;145479.50;;;12.01;65.19
47530;BME280;33272;51.922;7.730;2023-04-27T09:53:10;145511.22;;;12.14;63.65
47530;BME280;33272;51.922;7.730;2023-04-27T09:55:42;145555.63;;;12.32;63.81
47530;BME280;33272;51.922;7.730;2023-04-27T09:58:52;145594.97;;;12.48;61.93
47530;BME280;33272;51.922;7.730;2023-04-27T10:01:37;145615.31;;;12.56;58.59
47530;BME280;33272;51.922;7.730;2023-04-27T10:04:23;145556.94;;;12.33;53.73
47530;BME280;33272;51.922;7.730;2023-04-27T10:06:58;145548.00;;;12.29;60.78
47530;BME280;33272;51.922;7.730;2023-04-27T10:09:27;145542.97;;;12.27;60.57
47530;BME280;33272;51.922;7.730;2023-04-27T10:12:11;145553.09;;;12.31;61.26
47530;BME280;33272;51.922;7.730;2023-04-27T10:14:49;145596.28;;;12.48;61.32
47530;BME280;33272;51.922;7.730;2023-04-27T10:17:18;145640.69;;;12.66;61.77
47530;BME280;33272;51.922;7.730;2023-04-27T10:19:57;145691.50;;;12.87;60.84
47530;BME280;33272;51.922;7.730;2023-04-27T10:22:37;145725.75;;;13.01;60.04
47530;BME280;33272;51.922;7.730;2023-04-27T10:25:16;145648.31;;;12.69;54.04
47530;BME280;33272;51.922;7.730;2023-04-27T10:27:49;145589.94;;;12.46;56.72
47530;BME280;33272;51.922;7.730;2023-04-27T10:30:21;145624.19;;;12.60;60.10
47530;BME280;33272;51.922;7.730;2023-04-27T10:32:53;145652.13;;;12.71;59.33
47530;BME280;33272;51.922;7.730;2023-04-27T10:35:21;145700.38;;;12.90;60.25
47530;BME280;33272;51.922;7.730;2023-04-27T10:37:49;145739.75;;;13.06;58.76
47530;BME280;33272;51.922;7.730;2023-04-27T10:40:17;145779.13;;;13.22;59.17
47530;BME280;33272;51.922;7.730;2023-04-27T10:42:45;145804.56;;;13.32;57.91
47530;BME280;33272;51.922;7.730;2023-04-27T10:45:28;145790.56;;;13.27;56.46
47530;BME280;33272;51.922;7.730;2023-04-27T10:48:00;145793.16;;;13.28;55.67
47530;BME280;33272;51.922;7.730;2023-04-27T10:50:28;145770.22;;;13.18;54.80
47530;BME280;33272;51.922;7.730;2023-04-27T10:52:59;145748.63;;;13.10;55.25
47530;BME280;33272;51.922;7.730;2023-04-27T10:55:28;145723.25;;;12.99;55.58
47530;BME280;33272;51.922;7.730;2023-04-27T10:57:56;145697.84;;;12.89;54.90
47530;BME280;33272;51.922;7.730;2023-04-27T11:00:25;145671.16;;;12.79;54.45
47530;BME280;33272;51.922;7.730;2023-04-27T11:02:55;145687.66;;;12.85;55.06
47530;BME280;33272;51.922;7.730;2023-04-27T11:05:24;145723.25;;;12.99;54.62
47530;BME280;33272;51.922;7.730;2023-04-27T11:08:04;145747.38;;;13.09;53.69
47530;BME280;33272;51.922;7.730;2023-04-27T11:10:32;145777.84;;;13.21;54.37
47530;BME280;33272;51.922;7.730;2023-04-27T11:13:09;145804.56;;;13.32;53.84
47530;BME280;33272;51.922;7.730;2023-04-27T11:15:44;145845.19;;;13.49;53.70
47530;BME280;33272;51.922;7.730;2023-04-27T11:18:13;145885.84;;;13.65;53.71
47530;BME280;33272;51.922;7.730;2023-04-27T11:20:43;145910.03;;;13.75;53.76
47530;BME280;33272;51.922;7.730;2023-04-27T11:23:10;145885.84;;;13.65;53.17
47530;BME280;33272;51.922;7.730;2023-04-27T11:25:37;145873.16;;;13.60;53.29
47530;BME280;33272;51.922;7.730;2023-04-27T11:28:04;145849.03;;;13.50;52.81
47530;BME280;33272;51.922;7.730;2023-04-27T11:30:42;145838.84;;;13.46;52.99
47530;BME280;33272;51.922;7.730;2023-04-27T11:33:09;145832.53;;;13.43;52.50
47530;BME280;33272;51.922;7.730;2023-04-27T11:35:38;145854.09;;;13.52;52.65
47530;BME280;33272;51.922;7.730;2023-04-27T11:38:05;145904.94;;;13.73;53.53
47530;BME280;33272;51.922;7.730;2023-04-27T11:40:32;145949.44;;;13.90;53.03
47530;BME280;33272;51.922;7.730;2023-04-27T11:43:00;145971.00;;;13.99;52.78
47530;BME280;33272;51.922;7.730;2023-04-27T11:45:29;145972.31;;;14.00;51.93
47530;BME280;33272;51.922;7.730;2023-04-27T11:47:57;145995.16;;;14.09;52.01
47530;BME280;33272;51.922;7.730;2023-04-27T11:50:25;146009.13;;;14.14;51.80
47530;BME280;33272;51.922;7.730;2023-04-27T11:52:53;146061.28;;;14.35;51.58
47530;BME280;33272;51.922;7.730;2023-04-27T11:55:21;146135.06;;;14.65;51.63
47530;BME280;33272;51.922;7.730;2023-04-27T11:57:56;146159.22;;;14.75;50.78
47530;BME280;33272;51.922;7.730;2023-04-27T12:00:24;146156.69;;;14.74;50.54
47530;BME280;33272;51.922;7.730;2023-04-27T12:02:51;146182.13;;;14.84;50.48
47530;BME280;33272;51.922;7.730;2023-04-27T12:05:18;146217.75;;;14.98;50.28
47530;BME280;33272;51.922;7.730;2023-04-27T12:07:45;146215.16;;;14.97;50.39
47530;BME280;33272;51.922;7.730;2023-04-27T12:10:14;146198.63;;;14.91;50.12
47530;BME280;33272;51.922;7.730;2023-04-27T12:12:41;146160.53;;;14.75;49.34
47530;BME280;33272;51.922;7.730;2023-04-27T12:15:09;146131.25;;;14.64;49.72
47530;BME280;33272;51.922;7.730;2023-04-27T12:17:37;146121.06;;;14.59;49.94
47530;BME280;33272;51.922;7.730;2023-04-27T12:20:05;146118.53;;;14.58;49.75
47530;BME280;33272;51.922;7.730;2023-04-27T12:22:33;146133.78;;;14.65;50.00
47530;BME280;33272;51.922;7.730;2023-04-27T12:25:00;146137.63;;;14.66;49.06
47530;BME280;33272;51.922;7.730;2023-04-27T12:27:28;146128.69;;;14.63;48.21
47530;BME280;33272;51.922;7.730;2023-04-27T12:29:55;146131.25;;;14.64;49.23
47530;BME280;33272;51.922;7.730;2023-04-27T12:32:24;146131.25;;;14.64;49.37
47530;BME280;33272;51.922;7.730;2023-04-27T12:34:52;146154.16;;;14.73;48.91
47530;BME280;33272;51.922;7.730;2023-04-27T12:37:19;146147.78;;;14.70;48.43
47530;BME280;33272;51.922;7.730;2023-04-27T12:39:46;146156.69;;;14.74;47.96
47530;BME280;33272;51.922;7.730;2023-04-27T12:42:13;146151.59;;;14.72;47.70
47530;BME280;33272;51.922;7.730;2023-04-27T12:44:45;146121.06;;;14.59;47.12
47530;BME280;33272;51.922;7.730;2023-04-27T12:47:12;146140.16;;;14.67;48.41
47530;BME280;33272;51.922;7.730;2023-04-27T12:49:39;146147.78;;;14.70;47.86
47530;BME280;33272;51.922;7.730;2023-04-27T12:52:06;146163.06;;;14.76;47.00
47530;BME280;33272;51.922;7.730;2023-04-27T12:54:34;146208.84;;;14.95;48.39
47530;BME280;33272;51.922;7.730;2023-04-27T12:57:01;146247.03;;;15.10;47.92